Terminal Aerodrome Forecast
Issued by NWS Wilmington, OH

Current Version | Previous Version | Text Only | Print | Product List | Glossary Off
Versions: 1 2 3 4 5 6 7 8 9 10 11 12 13 14 15 16 17 18 19 20 21

000
FTUS41 KILN 020900 AAA
TAFCVG
TAF AMD
KCVG 020908Z 0209/0312 VRB03KT P6SM SCT250
     FM021300 26006KT P6SM FEW060 SCT200
     FM030000 21003KT P6SM SKC=

USA.gov is the U.S. government's official web portal to all federal, state and local government web resources and services.